createdAt,value
2018-09-26T00:02:20.040Z,75.29
2018-09-26T00:04:51.963Z,77.61
2018-09-26T00:07:21.054Z,77.40
2018-09-26T00:09:50.216Z,76.12
2018-09-26T00:12:19.296Z,76.29
2018-09-26T00:14:48.389Z,76.59
2018-09-26T00:17:17.668Z,76.36
2018-09-26T00:19:46.826Z,76.77
2018-09-26T00:22:15.893Z,75.23
2018-09-26T00:24:44.942Z,76.00
2018-09-26T00:27:13.999Z,75.09
2018-09-26T00:29:43.135Z,75.51
2018-09-26T00:32:12.233Z,76.14
2018-09-26T00:34:41.383Z,75.14
2018-09-26T00:37:10.537Z,76.76
2018-09-26T00:39:39.771Z,76.52
2018-09-26T00:42:08.943Z,76.42
2018-09-26T00:44:38.060Z,76.30
2018-09-26T00:47:07.187Z,76.61
2018-09-26T00:49:36.359Z,76.91
2018-09-26T00:52:05.437Z,77.34
2018-09-26T00:54:34.515Z,78.51
2018-09-26T00:57:03.585Z,77.89
2018-09-26T00:59:32.649Z,77.96
2018-09-26T01:02:01.749Z,78.36
2018-09-26T01:04:30.822Z,78.57
2018-09-26T01:06:59.864Z,79.10
2018-09-26T01:09:29.153Z,79.25
2018-09-26T01:11:58.205Z,80.01
2018-09-26T01:14:27.360Z,81.99
2018-09-26T01:16:56.412Z,82.09
2018-09-26T01:19:25.500Z,83.19
2018-09-26T01:21:54.677Z,83.40
2018-09-26T01:24:23.754Z,82.96
2018-09-26T01:26:52.912Z,82.11
2018-09-26T01:29:22.076Z,82.80
2018-09-26T01:31:51.128Z,84.27
2018-09-26T01:34:20.312Z,85.07
2018-09-26T01:36:49.383Z,85.60
2018-09-26T01:39:18.516Z,85.37
2018-09-26T01:41:48.580Z,84.60
2018-09-26T01:44:17.776Z,84.03
2018-09-26T01:46:46.861Z,83.71
2018-09-26T01:49:16.227Z,83.68
2018-09-26T01:51:45.356Z,84.09
2018-09-26T01:54:14.508Z,84.64
2018-09-26T01:56:43.652Z,84.81
2018-09-26T01:59:12.861Z,85.19
2018-09-26T02:01:41.924Z,85.61
2018-09-26T02:04:11.099Z,84.31
2018-09-26T02:06:40.178Z,85.53
2018-09-26T02:09:11.020Z,84.76
2018-09-26T02:11:40.256Z,85.32
2018-09-26T02:14:09.418Z,85.15
2018-09-26T02:16:38.627Z,85.61
2018-09-26T02:19:07.765Z,85.26
2018-09-26T02:21:36.851Z,85.02
2018-09-26T02:24:05.991Z,86.80
2018-09-26T02:26:35.118Z,88.00
2018-09-26T02:29:04.249Z,88.55
2018-09-26T02:31:33.326Z,88.41
2018-09-26T02:34:02.477Z,89.16
2018-09-26T02:36:31.648Z,88.85
2018-09-26T02:39:00.778Z,88.49
2018-09-26T02:41:29.872Z,88.85
2018-09-26T02:43:59.013Z,88.59
2018-09-26T02:46:28.077Z,89.38
2018-09-26T02:49:02.541Z,89.82
2018-09-26T02:51:31.916Z,90.42
2018-09-26T02:54:00.981Z,90.12
2018-09-26T02:56:30.147Z,90.17
2018-09-26T02:58:59.229Z,90.21
2018-09-26T03:01:28.339Z,90.91
2018-09-26T03:03:57.505Z,90.01
2018-09-26T03:06:26.657Z,90.18
2018-09-26T03:08:55.842Z,91.02
2018-09-26T03:11:24.893Z,89.98
2018-09-26T03:13:54.101Z,89.54
2018-09-26T03:16:23.196Z,89.94
2018-09-26T03:18:52.292Z,90.12
2018-09-26T03:21:21.944Z,90.42
2018-09-26T03:23:51.053Z,91.26
2018-09-26T03:26:20.203Z,90.52
2018-09-26T03:28:49.285Z,91.12
2018-09-26T03:31:18.452Z,90.84
2018-09-26T03:33:47.695Z,91.04
2018-09-26T03:36:16.660Z,90.81
2018-09-26T03:38:45.780Z,91.61
2018-09-26T03:41:14.914Z,92.40
2018-09-26T03:43:43.985Z,92.27
2018-09-26T03:46:13.046Z,92.63
2018-09-26T03:48:42.265Z,91.82
2018-09-26T03:51:11.344Z,93.16
2018-09-26T03:53:40.488Z,92.63
2018-09-26T03:56:09.657Z,93.50
2018-09-26T03:58:38.779Z,93.34
2018-09-26T04:01:07.953Z,94.18
2018-09-26T04:03:37.017Z,94.10
2018-09-26T04:06:06.285Z,92.81
2018-09-26T04:08:35.377Z,93.57
2018-09-26T04:11:04.453Z,94.18
2018-09-26T04:13:33.505Z,93.69
2018-09-26T04:16:02.584Z,93.73
2018-09-26T04:18:32.321Z,94.67
2018-09-26T04:21:01.413Z,94.10
2018-09-26T04:23:30.533Z,95.40
2018-09-26T04:25:59.625Z,94.60
2018-09-26T04:28:28.745Z,94.82
2018-09-26T04:30:57.925Z,95.79
2018-09-26T04:33:26.993Z,95.31
2018-09-26T04:35:56.102Z,95.69
2018-09-26T04:38:25.273Z,96.13
2018-09-26T04:40:54.316Z,96.25
2018-09-26T04:43:23.493Z,95.93
2018-09-26T04:45:52.532Z,95.48
2018-09-26T04:48:21.739Z,95.76
2018-09-26T04:50:50.914Z,96.14
2018-09-26T04:53:20.016Z,95.86
2018-09-26T04:55:49.147Z,95.37
2018-09-26T04:58:18.291Z,95.47
2018-09-26T05:00:47.380Z,95.51
2018-09-26T05:03:16.468Z,95.84
2018-09-26T05:05:45.582Z,96.24
2018-09-26T05:08:14.722Z,97.07
2018-09-26T05:10:43.799Z,97.42
2018-09-26T05:13:12.954Z,96.68
2018-09-26T05:15:42.020Z,94.64
2018-09-26T05:18:11.099Z,95.29
2018-09-26T05:20:40.207Z,95.44
2018-09-26T05:23:09.413Z,95.36
2018-09-26T05:25:38.609Z,95.29
2018-09-26T05:28:07.719Z,95.23
2018-09-26T05:30:36.864Z,94.86
2018-09-26T05:33:06.297Z,95.83
2018-09-26T05:35:35.435Z,96.00
2018-09-26T05:38:04.689Z,96.19
2018-09-26T05:40:33.889Z,96.48
2018-09-26T05:43:03.093Z,96.64
2018-09-26T05:45:32.283Z,96.71
2018-09-26T05:48:01.482Z,96.82
2018-09-26T05:50:30.709Z,96.85
2018-09-26T05:52:59.757Z,96.50
2018-09-26T05:55:28.888Z,96.10
2018-09-26T05:57:57.976Z,96.56
2018-09-26T06:00:27.096Z,96.67
2018-09-26T06:02:56.273Z,96.59
2018-09-26T06:05:25.447Z,95.67
2018-09-26T06:07:54.700Z,96.38
2018-09-26T06:10:23.884Z,96.22
2018-09-26T06:12:52.959Z,96.24
2018-09-26T06:15:22.084Z,96.06
2018-09-26T06:17:51.248Z,95.73
2018-09-26T06:20:20.463Z,94.98
2018-09-26T06:22:49.528Z,95.26
2018-09-26T06:25:18.697Z,94.68
2018-09-26T06:27:47.756Z,94.70
2018-09-26T06:30:17.018Z,93.07
2018-09-26T06:32:46.124Z,92.94
2018-09-26T06:35:15.207Z,92.96
2018-09-26T06:37:44.319Z,91.83
2018-09-26T06:40:13.535Z,91.63
2018-09-26T06:42:42.617Z,91.44
2018-09-26T06:45:11.713Z,91.68
2018-09-26T06:47:40.859Z,91.07
2018-09-26T06:50:09.960Z,90.49
2018-09-26T06:52:39.035Z,90.77
2018-09-26T06:55:08.097Z,90.59
2018-09-26T06:57:37.326Z,89.90
2018-09-26T07:00:07.028Z,88.77
2018-09-26T07:02:36.068Z,88.84
2018-09-26T07:05:05.161Z,88.87
2018-09-26T07:07:34.301Z,87.72
2018-09-26T07:10:03.369Z,87.56
2018-09-26T07:12:32.492Z,88.17
2018-09-26T07:15:01.557Z,87.22
2018-09-26T07:17:30.675Z,88.01
2018-09-26T07:19:59.742Z,86.26
2018-09-26T07:22:28.824Z,86.03
2018-09-26T07:24:57.928Z,86.61
2018-09-26T07:27:27.046Z,85.64
2018-09-26T07:29:56.136Z,85.85
2018-09-26T07:32:25.233Z,84.71
2018-09-26T07:34:54.360Z,84.83
2018-09-26T07:37:23.540Z,84.22
2018-09-26T07:39:52.719Z,83.06
2018-09-26T07:42:21.841Z,83.11
2018-09-26T07:44:51.004Z,82.84
2018-09-26T07:47:20.112Z,82.71
2018-09-26T07:49:49.207Z,82.61
2018-09-26T07:52:18.309Z,81.73
2018-09-26T07:54:47.388Z,81.22
2018-09-26T07:57:16.470Z,81.52
2018-09-26T07:59:45.652Z,80.93
2018-09-26T08:02:14.748Z,80.75
2018-09-26T08:04:43.976Z,79.25
2018-09-26T08:07:13.067Z,79.89
2018-09-26T08:09:42.179Z,79.88
2018-09-26T08:12:11.256Z,76.92
2018-09-26T08:14:40.349Z,76.27
2018-09-26T08:17:09.551Z,76.65
2018-09-26T08:19:38.657Z,75.17
2018-09-26T08:22:07.717Z,75.42
2018-09-26T08:24:36.949Z,73.59
2018-09-26T08:27:06.162Z,73.60
2018-09-26T08:29:35.265Z,72.62
2018-09-26T08:32:04.341Z,71.90
2018-09-26T08:34:33.444Z,72.07
2018-09-26T08:37:02.519Z,72.02
2018-09-26T08:39:31.632Z,71.63
2018-09-26T08:42:00.814Z,70.25
2018-09-26T08:44:30.090Z,70.09
2018-09-26T08:46:59.220Z,69.80
2018-09-26T08:49:28.344Z,69.16
2018-09-26T08:51:57.459Z,70.57
2018-09-26T08:54:26.628Z,69.62
2018-09-26T08:56:56.027Z,69.18
2018-09-26T08:59:25.195Z,68.34
2018-09-26T09:01:54.316Z,68.85
2018-09-26T09:04:23.495Z,67.76
2018-09-26T09:06:52.602Z,67.39
2018-09-26T09:09:21.677Z,68.54
2018-09-26T09:11:50.793Z,66.84
2018-09-26T09:14:19.916Z,65.99
2018-09-26T09:16:49.287Z,66.52
2018-09-26T09:19:18.371Z,67.29
2018-09-26T09:21:47.485Z,65.72
2018-09-26T09:24:16.555Z,66.92
2018-09-26T09:26:45.681Z,66.51
2018-09-26T09:29:14.775Z,66.27
2018-09-26T09:31:43.881Z,64.98
2018-09-26T09:34:12.955Z,64.23
2018-09-26T09:36:42.134Z,63.76
2018-09-26T09:39:11.287Z,63.17
2018-09-26T09:41:40.455Z,63.74
2018-09-26T09:44:09.576Z,63.66
2018-09-26T09:46:38.772Z,60.93
2018-09-26T09:49:07.925Z,61.28
2018-09-26T09:51:37.068Z,61.62
2018-09-26T09:54:06.303Z,60.01
2018-09-26T09:56:35.401Z,57.52
2018-09-26T09:59:04.503Z,57.02
2018-09-26T10:01:33.693Z,57.69
2018-09-26T10:04:02.804Z,57.13
2018-09-26T10:06:31.908Z,57.89
2018-09-26T10:09:01.018Z,58.54
2018-09-26T10:11:30.112Z,57.29
2018-09-26T10:13:59.208Z,56.58
2018-09-26T10:16:28.289Z,55.16
2018-09-26T10:18:57.496Z,54.69
2018-09-26T10:21:26.596Z,57.13
2018-09-26T10:23:55.716Z,56.26
2018-09-26T10:26:24.857Z,53.92
2018-09-26T10:28:53.916Z,56.68
2018-09-26T10:31:23.003Z,54.36
2018-09-26T10:33:52.166Z,54.08
2018-09-26T10:36:21.343Z,54.55
2018-09-26T10:38:50.675Z,55.72
2018-09-26T10:41:19.848Z,55.16
2018-09-26T10:43:48.951Z,55.18
2018-09-26T10:46:18.045Z,54.87
2018-09-26T10:48:47.207Z,54.95
2018-09-26T10:51:16.340Z,55.46
2018-09-26T10:53:45.450Z,56.07
2018-09-26T10:56:14.664Z,55.43
2018-09-26T10:58:43.811Z,54.83
2018-09-26T11:01:13.007Z,55.08
2018-09-26T11:03:42.107Z,54.95
2018-09-26T11:06:11.235Z,54.19
2018-09-26T11:08:40.394Z,53.73
2018-09-26T11:11:09.521Z,51.91
2018-09-26T11:13:38.693Z,52.17
2018-09-26T11:16:08.025Z,50.27
2018-09-26T11:18:37.052Z,51.08
2018-09-26T11:21:06.876Z,51.15
2018-09-26T11:23:35.905Z,51.30
2018-09-26T11:26:05.051Z,49.69
2018-09-26T11:28:34.100Z,49.58
2018-09-26T11:31:03.305Z,46.57
2018-09-26T11:33:32.560Z,44.86
2018-09-26T11:36:01.901Z,45.64
2018-09-26T11:38:30.984Z,43.07
2018-09-26T11:41:00.150Z,40.74
2018-09-26T11:43:29.464Z,37.77
2018-09-26T11:45:58.629Z,34.87
2018-09-26T11:48:27.768Z,35.22
2018-09-26T11:50:56.893Z,34.88
2018-09-26T11:53:26.068Z,32.44
2018-09-26T11:55:55.303Z,31.82
2018-09-26T11:58:24.394Z,31.94
2018-09-26T12:00:53.599Z,31.86
2018-09-26T12:03:22.667Z,29.81
2018-09-26T12:05:51.748Z,30.32
2018-09-26T12:08:20.951Z,30.49
2018-09-26T12:10:49.976Z,28.08
2018-09-26T12:13:19.087Z,32.40
2018-09-26T12:15:48.235Z,29.47
2018-09-26T12:18:17.335Z,27.26
2018-09-26T12:20:46.389Z,30.02
2018-09-26T12:23:15.641Z,28.09
2018-09-26T12:25:44.733Z,31.65
2018-09-26T12:28:13.943Z,28.04
2018-09-26T12:30:43.023Z,27.59
2018-09-26T12:33:12.717Z,25.78
2018-09-26T12:35:41.786Z,27.41
2018-09-26T12:38:10.926Z,28.06
2018-09-26T12:40:40.029Z,29.12
2018-09-26T12:43:09.153Z,25.16
2018-09-26T12:45:38.293Z,25.19
2018-09-26T12:48:07.788Z,25.08
2018-09-26T12:50:36.887Z,23.60
2018-09-26T12:53:06.313Z,23.86
2018-09-26T12:55:35.757Z,24.46
2018-09-26T12:58:05.095Z,23.36
2018-09-26T13:00:34.299Z,25.18
2018-09-26T13:03:03.377Z,24.21
2018-09-26T13:05:32.528Z,23.98
2018-09-26T13:08:01.694Z,24.74
2018-09-26T13:10:30.781Z,26.46
2018-09-26T13:12:59.924Z,25.97
2018-09-26T13:15:29.268Z,25.60
2018-09-26T13:17:58.328Z,24.63
2018-09-26T13:20:27.460Z,25.80
2018-09-26T13:22:56.490Z,25.16
2018-09-26T13:25:25.610Z,25.05
2018-09-26T13:27:54.656Z,22.77
2018-09-26T13:30:23.834Z,22.11
2018-09-26T13:32:52.828Z,22.42
2018-09-26T13:35:22.030Z,22.58
2018-09-26T13:37:51.166Z,21.21
2018-09-26T13:40:20.385Z,22.57
2018-09-26T13:42:49.524Z,22.47
2018-09-26T13:45:18.664Z,23.22
2018-09-26T13:47:47.731Z,23.37
2018-09-26T13:50:17.075Z,21.73
2018-09-26T13:52:46.081Z,21.79
2018-09-26T13:55:15.437Z,20.94
2018-09-26T13:57:44.502Z,20.79
2018-09-26T14:00:16.569Z,20.70
2018-09-26T14:02:46.500Z,21.86
2018-09-26T14:05:15.603Z,24.39
2018-09-26T14:07:44.674Z,23.44
2018-09-26T14:10:13.765Z,21.50
2018-09-26T14:12:49.722Z,22.08
2018-09-26T14:15:18.865Z,23.14
2018-09-26T14:17:47.920Z,24.38
2018-09-26T14:20:17.141Z,23.79
2018-09-26T14:22:46.314Z,23.45
2018-09-26T14:25:15.299Z,23.12
2018-09-26T14:27:44.498Z,23.57
2018-09-26T14:30:13.594Z,23.14
2018-09-26T14:32:42.639Z,22.92
2018-09-26T14:35:11.778Z,22.68
2018-09-26T14:37:40.815Z,22.27
2018-09-26T14:40:10.337Z,22.49
2018-09-26T14:42:39.831Z,24.17
2018-09-26T14:45:09.124Z,24.22
2018-09-26T14:47:38.113Z,22.13
2018-09-26T14:50:07.877Z,22.59
2018-09-26T14:52:37.035Z,24.60
2018-09-26T14:55:06.192Z,24.75
2018-09-26T14:57:35.285Z,23.48
2018-09-26T15:00:04.614Z,23.86
2018-09-26T15:02:33.800Z,25.28
2018-09-26T15:05:02.880Z,25.68
2018-09-26T15:07:31.984Z,24.78
2018-09-26T15:10:01.076Z,25.07
2018-09-26T15:12:30.263Z,24.63
2018-09-26T15:14:59.354Z,25.13
2018-09-26T15:17:28.540Z,26.79
2018-09-26T15:19:57.659Z,24.73
2018-09-26T15:22:26.847Z,27.49
2018-09-26T15:24:56.001Z,28.74
2018-09-26T15:27:25.177Z,29.45
2018-09-26T15:29:54.265Z,30.81
2018-09-26T15:32:23.601Z,31.54
2018-09-26T15:34:52.642Z,31.04
2018-09-26T15:37:21.721Z,28.94
2018-09-26T15:39:50.957Z,30.65
2018-09-26T15:42:20.110Z,30.33
2018-09-26T15:44:49.123Z,29.69
2018-09-26T15:47:18.204Z,30.33
2018-09-26T15:49:47.336Z,32.05
2018-09-26T15:52:16.420Z,33.25
2018-09-26T15:54:45.561Z,34.35
2018-09-26T15:57:14.700Z,35.82
2018-09-26T15:59:43.840Z,37.71
2018-09-26T16:02:13.028Z,36.12
2018-09-26T16:04:42.067Z,36.93
2018-09-26T16:07:11.155Z,38.35
2018-09-26T16:09:40.371Z,39.21
2018-09-26T16:12:09.528Z,40.42
2018-09-26T16:14:38.597Z,41.06
2018-09-26T16:17:07.689Z,41.46
2018-09-26T16:19:36.990Z,42.34
2018-09-26T16:22:06.101Z,42.45
2018-09-26T16:24:35.296Z,42.83
2018-09-26T16:27:04.380Z,44.00
2018-09-26T16:29:33.460Z,44.40
2018-09-26T16:32:02.704Z,46.75
2018-09-26T16:34:31.832Z,47.85
2018-09-26T16:37:00.964Z,48.25
2018-09-26T16:39:30.188Z,48.59
2018-09-26T16:41:59.266Z,47.60
2018-09-26T16:44:28.448Z,48.60
2018-09-26T16:46:57.589Z,49.15
2018-09-26T16:49:26.674Z,49.70
2018-09-26T16:51:55.841Z,51.30
2018-09-26T16:54:25.048Z,52.52
2018-09-26T16:56:54.204Z,53.37
2018-09-26T16:59:23.313Z,54.34
2018-09-26T17:01:52.445Z,55.13
2018-09-26T17:04:21.596Z,56.30
2018-09-26T17:06:50.645Z,57.02
2018-09-26T17:09:19.709Z,57.64
2018-09-26T17:11:48.800Z,58.49
2018-09-26T17:14:18.006Z,59.36
2018-09-26T17:16:47.100Z,60.18
2018-09-26T17:19:16.349Z,61.26
2018-09-26T17:21:45.392Z,61.33
2018-09-26T17:24:14.609Z,62.20
2018-09-26T17:26:43.789Z,63.49
2018-09-26T17:29:12.953Z,63.48
2018-09-26T17:31:42.069Z,64.08
2018-09-26T17:34:11.491Z,65.66
2018-09-26T17:36:40.565Z,66.75
2018-09-26T17:39:10.085Z,66.63
2018-09-26T17:41:39.784Z,67.29
2018-09-26T17:44:09.455Z,67.50
2018-09-26T17:46:38.642Z,69.04
2018-09-26T17:49:07.747Z,69.49
2018-09-26T17:51:36.833Z,70.51
2018-09-26T17:54:05.969Z,70.83
2018-09-26T17:56:35.045Z,72.23
2018-09-26T17:59:04.173Z,71.34
2018-09-26T18:01:33.290Z,72.14
2018-09-26T18:04:02.471Z,73.77
2018-09-26T18:06:31.576Z,75.07
2018-09-26T18:09:00.784Z,75.13
2018-09-26T18:11:29.856Z,75.51
2018-09-26T18:13:58.972Z,76.28
2018-09-26T18:16:28.068Z,77.10
2018-09-26T18:18:57.214Z,76.42
2018-09-26T18:21:26.316Z,77.02
2018-09-26T18:23:55.692Z,78.52
2018-09-26T18:26:24.767Z,78.54
2018-09-26T18:28:53.868Z,79.18
2018-09-26T18:31:22.997Z,80.04
2018-09-26T18:33:52.142Z,81.53
2018-09-26T18:36:21.301Z,82.31
2018-09-26T18:38:50.667Z,82.50
2018-09-26T18:41:19.660Z,83.91
2018-09-26T18:43:48.845Z,83.96
2018-09-26T18:46:17.926Z,84.68
2018-09-26T18:48:47.004Z,85.08
2018-09-26T18:51:16.168Z,85.15
2018-09-26T18:53:45.280Z,85.39
2018-09-26T18:56:14.480Z,85.27
2018-09-26T18:58:43.826Z,86.48
2018-09-26T19:01:12.957Z,86.99
2018-09-26T19:03:42.073Z,87.56
2018-09-26T19:06:11.245Z,87.77
2018-09-26T19:08:41.273Z,88.33
2018-09-26T19:11:10.387Z,88.17
2018-09-26T19:13:39.517Z,88.50
2018-09-26T19:16:08.788Z,88.38
2018-09-26T19:18:37.864Z,88.60
2018-09-26T19:21:07.059Z,89.36
2018-09-26T19:23:36.744Z,89.65
2018-09-26T19:26:05.949Z,88.98
2018-09-26T19:28:35.061Z,89.14
2018-09-26T19:31:04.193Z,89.24
2018-09-26T19:33:33.385Z,88.86
2018-09-26T19:36:02.517Z,88.28
2018-09-26T19:38:31.665Z,88.83
2018-09-26T19:41:00.761Z,88.99
2018-09-26T19:43:29.921Z,90.13
2018-09-26T19:45:59.005Z,90.86
2018-09-26T19:48:28.176Z,90.50
2018-09-26T19:50:57.363Z,91.03
2018-09-26T19:53:26.553Z,90.80
2018-09-26T19:55:55.788Z,91.12
2018-09-26T19:58:24.909Z,91.23
2018-09-26T20:00:54.076Z,91.40
2018-09-26T20:03:23.232Z,91.10
2018-09-26T20:05:52.420Z,92.07
2018-09-26T20:08:21.524Z,91.42
2018-09-26T20:10:50.721Z,91.71
2018-09-26T20:13:19.852Z,92.82
2018-09-26T20:15:48.944Z,92.60
2018-09-26T20:18:18.084Z,92.61
2018-09-26T20:20:47.296Z,92.72
2018-09-26T20:23:16.522Z,91.94
2018-09-26T20:25:45.744Z,91.87
2018-09-26T20:28:14.981Z,92.19
2018-09-26T20:30:44.104Z,92.07
2018-09-26T20:33:13.325Z,91.94
2018-09-26T20:35:42.397Z,91.83
2018-09-26T20:38:11.539Z,92.31
2018-09-26T20:40:40.663Z,92.14
2018-09-26T20:43:09.903Z,92.85
2018-09-26T20:45:38.987Z,92.89
2018-09-26T20:48:08.157Z,93.06
2018-09-26T20:50:37.253Z,92.64
2018-09-26T20:53:06.717Z,92.84
2018-09-26T20:55:36.025Z,93.29
2018-09-26T20:58:05.377Z,93.39
2018-09-26T21:00:34.531Z,93.63
2018-09-26T21:03:03.804Z,93.62
2018-09-26T21:05:32.960Z,93.58
2018-09-26T21:08:02.053Z,94.66
2018-09-26T21:10:31.173Z,94.60
2018-09-26T21:13:00.262Z,95.33
2018-09-26T21:15:29.473Z,95.75
2018-09-26T21:17:58.730Z,95.53
2018-09-26T21:20:27.747Z,95.62
2018-09-26T21:22:56.846Z,96.12
2018-09-26T21:25:26.033Z,96.39
2018-09-26T21:27:55.101Z,96.55
2018-09-26T21:30:24.248Z,96.54
2018-09-26T21:32:53.339Z,95.96
2018-09-26T21:35:22.565Z,96.04
2018-09-26T21:37:51.833Z,95.87
2018-09-26T21:40:21.001Z,95.83
2018-09-26T21:42:50.116Z,96.54
2018-09-26T21:45:19.196Z,96.66
2018-09-26T21:47:48.288Z,96.60
2018-09-26T21:50:17.387Z,96.47
2018-09-26T21:52:46.473Z,96.56
2018-09-26T21:55:15.615Z,96.84
2018-09-26T21:57:44.795Z,96.57
2018-09-26T22:00:14.036Z,95.02
2018-09-26T22:02:43.158Z,95.95
2018-09-26T22:05:12.270Z,95.61
2018-09-26T22:07:41.368Z,95.59
2018-09-26T22:10:10.796Z,95.53
2018-09-26T22:12:39.947Z,95.77
2018-09-26T22:15:25.573Z,95.83
2018-09-26T22:17:55.109Z,96.20
2018-09-26T22:20:24.184Z,96.30
2018-09-26T22:22:53.343Z,95.17
2018-09-26T22:25:22.519Z,94.76
2018-09-26T22:27:51.655Z,93.08
2018-09-26T22:30:20.731Z,94.04
2018-09-26T22:32:49.827Z,94.40
2018-09-26T22:35:19.004Z,95.16
2018-09-26T22:37:48.168Z,95.62
2018-09-26T22:40:17.235Z,96.16
2018-09-26T22:42:46.328Z,96.21
2018-09-26T22:45:15.488Z,95.34
2018-09-26T22:47:44.617Z,95.78
2018-09-26T22:50:13.804Z,95.67
2018-09-26T22:52:42.876Z,96.18
2018-09-26T22:55:12.017Z,96.65
2018-09-26T22:57:41.196Z,96.89
2018-09-26T23:00:10.327Z,97.57
2018-09-26T23:02:39.415Z,98.11
2018-09-26T23:05:08.631Z,98.54
2018-09-26T23:07:37.711Z,98.40
2018-09-26T23:10:06.899Z,98.89
2018-09-26T23:12:36.048Z,99.37
2018-09-26T23:15:05.173Z,99.41
2018-09-26T23:17:34.390Z,99.44
2018-09-26T23:20:03.539Z,99.89
2018-09-26T23:22:32.711Z,100.00
2018-09-26T23:25:01.867Z,100.00
2018-09-26T23:27:30.983Z,100.00
2018-09-26T23:30:00.231Z,100.00
2018-09-26T23:32:29.293Z,100.00
2018-09-26T23:34:58.397Z,100.00
2018-09-26T23:37:27.513Z,100.00
2018-09-26T23:39:56.623Z,100.00
2018-09-26T23:42:25.710Z,100.00
2018-09-26T23:44:54.824Z,100.00
2018-09-26T23:47:23.901Z,100.00
2018-09-26T23:49:53.021Z,100.00
2018-09-26T23:52:22.198Z,100.00
2018-09-26T23:54:51.287Z,100.00
2018-09-26T23:57:20.400Z,100.00
2018-09-26T23:59:49.481Z,100.00
